This is the latest recevied weather packets stored in our database for station/object DB7GV-8. If no packets are shown the sender has not sent any weather packets the latest 1 day(s).
| Time | Temp. | Humidity | Pressure | Rain* | Wind** | Luminosity | Snow |
|---|---|---|---|---|---|---|---|
| 1777968445 | 16.67° C | 58% | 1010.5 hPa | - | 0 m/s | - | - |
| 1777967539 | 17.22° C | 56% | 1010.6 hPa | - | 0 m/s | - | - |
| 1777966634 | 19.44° C | 49% | 1010.8 hPa | - | 0 m/s | - | - |
| 1777965729 | 23.89° C | 42% | 1010.9 hPa | - | 0 m/s | - | - |
| 1777964824 | 25.56° C | 41% | 1011 hPa | - | 0 m/s | - | - |
| 1777963917 | 23.89° C | 48% | 1011.1 hPa | - | 0 m/s | - | - |
| 1777963013 | 17.22° C | 70% | 1011.1 hPa | - | 0 m/s | - | - |
| 1777962107 | 13.33° C | 78% | 1011.4 hPa | - | 0 m/s | - | - |
| 1777961201 | 12.22° C | 81% | 1011.4 hPa | - | 0 m/s | - | - |
| 1777960296 | 11.67° C | 81% | 1011.2 hPa | - | 0 m/s | - | - |
| 1777959391 | 11.67° C | 82% | 1011.1 hPa | - | 0 m/s | - | - |
| 1777958485 | 11.11° C | 82% | 1011.1 hPa | - | 0 m/s | - | - |
| 1777957580 | 10.56° C | 83% | 1011.2 hPa | - | 0 m/s | - | - |
| 1777956674 | 10.56° C | 83% | 1011.2 hPa | - | 0 m/s | - | - |
| 1777955769 | 10° C | 84% | 1011.2 hPa | - | 0 m/s | - | - |
| 1777954863 | 9.44° C | 84% | 1011.3 hPa | - | 0 m/s | - | - |
| 1777953958 | 10° C | 83% | 1011.2 hPa | - | 0 m/s | - | - |
| 1777953052 | 9.44° C | 83% | 1011.3 hPa | - | 0 m/s | - | - |
| 1777952147 | 10° C | 83% | 1011.6 hPa | - | 0 m/s | - | - |
| 1777951242 | 10° C | 83% | 1011.6 hPa | - | 0 m/s | - | - |
| 1777950337 | 10° C | 83% | 1011.7 hPa | - | 0 m/s | - | - |
| 1777949431 | 10° C | 82% | 1011.8 hPa | - | 0 m/s | - | - |
| 1777947629 | 10.56° C | 81% | 1011.8 hPa | - | 0 m/s | - | - |
| 1777946714 | 10.56° C | 81% | 1011.9 hPa | - | 0 m/s | - | - |
| 1777945809 | 10.56° C | 81% | 1012.1 hPa | - | 0 m/s | - | - |
* Rain since midnight (hover to see other rain measurements)
** Current wind speed in m/s (hover to see current wind gust speed)